Time;durP1;ratioP1;P1;durP2;ratioP2;P2;SDS_P1;SDS_P2;PMS_P1;PMS_P2;Temp;Humidity;BMP_temperature;BMP_pressure;BME280_temperature;BME280_humidity;BME280_pressure;Samples;Min_cycle;Max_cycle;Signal;HPM_P1;HPM_P2
2023/05/30 00:00:14;;;;;;;8.50;4.37;;;;;;;13.85;71.70;102415.75;6055337;29;20233;-80
2023/05/30 00:03:35;;;;;;;8.70;4.37;;;;;;;13.44;71.79;102412.69;6057254;29;20530;-80
2023/05/30 00:06:56;;;;;;;6.67;3.87;;;;;;;13.51;72.22;102413.94;6055423;29;20331;-82
2023/05/30 00:10:17;;;;;;;11.37;3.23;;;;;;;13.52;72.24;102421.94;6057996;29;20245;-82
2023/05/30 00:13:42;;;;;;;4.50;3.07;;;;;;;13.42;72.35;102420.94;6054656;29;20237;-82
2023/05/30 00:17:03;;;;;;;8.07;3.93;;;;;;;13.56;72.76;102415.31;6055950;29;20241;-83
2023/05/30 00:20:24;;;;;;;5.77;2.63;;;;;;;13.53;72.58;102428.25;6058254;29;20237;-82
2023/05/30 00:23:46;;;;;;;9.83;3.43;;;;;;;13.33;72.82;102421.63;6061424;29;20679;-85
2023/05/30 00:27:07;;;;;;;7.77;3.20;;;;;;;13.30;72.74;102429.13;6052490;29;20225;-82
2023/05/30 00:30:31;;;;;;;5.77;3.00;;;;;;;13.44;72.69;102418.97;6049848;29;20241;-84
2023/05/30 00:33:52;;;;;;;6.93;2.97;;;;;;;13.25;73.00;102423.16;6058059;29;20241;-82
2023/05/30 00:37:12;;;;;;;11.27;3.57;;;;;;;13.35;72.77;102416.09;6036102;29;20233;-79
2023/05/30 00:40:33;;;;;;;6.07;2.83;;;;;;;13.35;72.79;102418.81;6059414;29;20234;-81
2023/05/30 00:43:55;;;;;;;10.13;3.83;;;;;;;13.27;72.75;102413.94;6066089;29;20245;-81
2023/05/30 00:47:17;;;;;;;4.87;2.80;;;;;;;13.10;73.41;102413.50;6037734;29;20241;-82
2023/05/30 00:50:39;;;;;;;12.97;3.30;;;;;;;13.29;73.06;102416.53;6060180;29;20244;-81
2023/05/30 00:54:02;;;;;;;9.10;4.10;;;;;;;13.12;73.37;102412.41;6058352;29;20515;-80
2023/05/30 00:57:23;;;;;;;7.83;2.53;;;;;;;13.02;73.43;102408.63;6049133;29;20781;-83
2023/05/30 01:00:45;;;;;;;4.63;2.87;;;;;;;13.09;73.27;102403.66;6035457;29;20568;-80
2023/05/30 01:04:08;;;;;;;6.00;2.43;;;;;;;13.10;73.50;102402.69;6057140;29;20241;-79
2023/05/30 01:07:33;;;;;;;8.70;2.93;;;;;;;13.01;73.44;102406.03;6044488;29;20267;-79
2023/05/30 01:10:59;;;;;;;9.50;3.20;;;;;;;13.01;73.34;102398.78;6047185;29;20229;-79
2023/05/30 01:14:26;;;;;;;7.33;2.50;;;;;;;12.90;73.60;102409.53;6059268;29;20233;-82
2023/05/30 01:17:57;;;;;;;9.10;4.23;;;;;;;12.88;73.31;102407.91;6059489;29;20249;-79
2023/05/30 01:21:24;;;;;;;4.87;3.00;;;;;;;12.83;73.63;102417.25;6063439;29;20241;-82
2023/05/30 01:24:55;;;;;;;11.33;3.10;;;;;;;12.84;73.28;102416.28;6050425;29;20229;-81
2023/05/30 01:28:21;;;;;;;6.83;3.50;;;;;;;12.80;73.43;102425.59;6061632;29;20678;-82
2023/05/30 01:31:42;;;;;;;5.83;2.50;;;;;;;12.72;73.99;102416.31;6065429;29;20236;-78
2023/05/30 01:35:04;;;;;;;6.03;3.00;;;;;;;12.77;73.85;102427.66;6062807;29;20249;-79
2023/05/30 01:38:25;;;;;;;3.53;2.63;;;;;;;12.74;73.63;102426.06;6062030;29;20617;-81
2023/05/30 01:41:54;;;;;;;4.77;2.67;;;;;;;12.65;73.75;102440.25;6059589;29;20241;-77
2023/05/30 01:45:24;;;;;;;10.70;3.40;;;;;;;12.74;74.00;102444.13;6049516;29;20245;-78
2023/05/30 01:48:56;;;;;;;6.90;3.50;;;;;;;12.83;73.23;102444.31;6061945;29;20234;-78
2023/05/30 01:52:21;;;;;;;7.60;3.30;;;;;;;12.65;73.54;102440.25;6056808;29;20226;-81
2023/05/30 01:55:44;;;;;;;3.43;2.20;;;;;;;12.76;73.26;102444.88;6063597;29;20229;-80
2023/05/30 01:59:08;;;;;;;4.20;2.20;;;;;;;12.81;73.38;102448.09;6061925;29;20658;-82
2023/05/30 02:02:31;;;;;;;8.47;3.17;;;;;;;12.70;73.13;102448.03;6042374;29;20233;-81
2023/05/30 02:05:52;;;;;;;3.60;2.70;;;;;;;12.59;73.57;102446.09;6061607;29;20242;-82
2023/05/30 02:09:13;;;;;;;9.23;2.90;;;;;;;12.73;72.98;102447.78;6029423;29;20241;-81
2023/05/30 02:12:33;;;;;;;3.20;2.10;;;;;;;12.54;74.10;102436.56;6053642;29;20245;-82
2023/05/30 02:15:55;;;;;;;3.97;2.97;;;;;;;12.43;73.78;102445.44;6051342;29;20568;-82
2023/05/30 02:19:18;;;;;;;5.70;2.43;;;;;;;12.60;74.03;102446.97;6037682;29;21038;-84
2023/05/30 02:22:39;;;;;;;5.53;2.97;;;;;;;12.74;73.35;102449.53;6058392;29;20229;-83
2023/05/30 02:26:03;;;;;;;7.70;2.27;;;;;;;12.73;73.66;102456.78;6059467;29;20233;-83
2023/05/30 02:29:23;;;;;;;2.93;2.27;;;;;;;12.59;73.64;102459.63;6023803;29;20230;-88
2023/05/30 02:32:44;;;;;;;4.97;2.87;;;;;;;12.53;74.07;102473.59;6037276;29;20372;-87
2023/05/30 02:36:08;;;;;;;6.30;3.50;;;;;;;12.55;73.70;102476.19;6057962;29;20698;-88
2023/05/30 02:39:29;;;;;;;6.93;3.57;;;;;;;12.49;73.98;102473.91;6044936;29;20510;-88
2023/05/30 02:42:51;;;;;;;5.43;2.50;;;;;;;12.48;74.54;102483.00;6061739;29;20229;-89
2023/05/30 02:46:13;;;;;;;7.40;2.10;;;;;;;12.59;74.00;102472.28;6046170;29;20725;-90
2023/05/30 02:49:35;;;;;;;9.63;3.40;;;;;;;12.62;73.88;102470.22;6049103;29;20482;-86
2023/05/30 02:52:58;;;;;;;5.80;2.90;;;;;;;12.63;73.99;102471.97;6036814;29;20595;-86
2023/05/30 02:56:20;;;;;;;8.23;3.57;;;;;;;12.45;73.96;102476.00;6054261;29;20229;-88
2023/05/30 02:59:52;;;;;;;11.20;4.20;;;;;;;12.33;74.18;102481.41;6036869;29;20232;-86
2023/05/30 03:03:14;;;;;;;3.73;2.30;;;;;;;12.38;74.33;102480.09;6048778;29;20237;-87
2023/05/30 03:06:40;;;;;;;7.40;3.27;;;;;;;12.56;74.06;102480.59;6062622;29;20707;-85
2023/05/30 03:10:20;;;;;;;20.13;3.50;;;;;;;12.30;74.56;102476.19;6043152;29;20244;-86
2023/05/30 03:13:46;;;;;;;10.07;3.33;;;;;;;12.41;74.16;102479.00;6013425;29;20233;-86
2023/05/30 03:17:08;;;;;;;7.10;3.03;;;;;;;12.11;74.76;102473.91;6041379;29;20241;-86
2023/05/30 03:20:31;;;;;;;4.87;3.07;;;;;;;12.36;75.36;102491.97;6058923;29;20252;-85
2023/05/30 03:23:55;;;;;;;4.07;2.50;;;;;;;12.37;74.83;102480.22;6026031;29;20252;-86
2023/05/30 03:27:21;;;;;;;10.10;2.80;;;;;;;12.46;75.40;102484.94;6052097;29;20683;-81
2023/05/30 03:30:43;;;;;;;7.70;3.57;;;;;;;12.58;74.80;102486.75;6057105;29;20717;-84
2023/05/30 03:34:04;;;;;;;6.70;3.53;;;;;;;12.56;74.35;102486.88;6050672;29;20249;-84
2023/05/30 03:37:25;;;;;;;3.77;2.33;;;;;;;12.59;74.64;102491.22;6057012;29;21686;-85
2023/05/30 03:40:46;;;;;;;4.70;2.07;;;;;;;12.37;75.12;102497.28;6060797;29;20233;-84
2023/05/30 03:44:09;;;;;;;9.90;3.27;;;;;;;12.56;74.18;102502.25;6059832;29;20523;-83
2023/05/30 03:47:29;;;;;;;7.47;4.20;;;;;;;12.44;74.47;102500.41;6059017;29;20246;-83
2023/05/30 03:50:50;;;;;;;7.53;6.80;;;;;;;12.74;74.68;102503.66;6058355;29;20248;-84
2023/05/30 03:54:11;;;;;;;10.10;4.63;;;;;;;12.68;74.53;102504.94;6045377;29;20233;-83
2023/05/30 03:57:33;;;;;;;4.43;3.10;;;;;;;12.78;74.19;102497.91;6049069;29;20232;-84
2023/05/30 04:00:56;;;;;;;12.27;6.10;;;;;;;12.91;73.62;102499.72;6059748;29;20321;-84
2023/05/30 04:04:18;;;;;;;10.87;6.87;;;;;;;12.90;73.51;102506.97;6048201;29;20615;-82
2023/05/30 04:07:39;;;;;;;8.17;3.70;;;;;;;13.03;73.65;102512.38;6059044;29;20237;-83
2023/05/30 04:11:00;;;;;;;21.37;6.17;;;;;;;13.13;72.90;102511.63;6050444;29;20245;-83
2023/05/30 04:14:21;;;;;;;18.73;9.67;;;;;;;13.28;72.60;102506.91;6060820;29;20237;-83
2023/05/30 04:17:43;;;;;;;6.53;3.17;;;;;;;13.25;72.59;102510.72;6046783;29;20229;-83
2023/05/30 04:21:04;;;;;;;4.83;3.27;;;;;;;13.23;72.52;102517.22;6057501;29;20344;-83
2023/05/30 04:24:26;;;;;;;10.27;3.20;;;;;;;13.25;72.35;102528.78;6035776;29;20233;-83
2023/05/30 04:27:47;;;;;;;7.50;3.47;;;;;;;13.07;72.72;102517.50;6061662;29;20233;-83
2023/05/30 04:31:10;;;;;;;6.93;3.17;;;;;;;13.16;72.63;102519.50;6048245;29;20237;-82
2023/05/30 04:34:34;;;;;;;7.10;3.40;;;;;;;13.26;72.88;102530.53;6053520;29;20233;-82
2023/05/30 04:37:56;;;;;;;7.63;4.23;;;;;;;13.23;72.71;102528.91;6052812;29;20513;-81
2023/05/30 04:41:19;;;;;;;7.83;3.70;;;;;;;13.35;72.34;102527.16;6063402;29;20230;-82
2023/05/30 04:44:40;;;;;;;7.13;3.87;;;;;;;13.26;72.52;102526.00;6057859;29;20225;-81
2023/05/30 04:48:03;;;;;;;6.27;4.27;;;;;;;13.28;73.11;102531.28;6052579;29;20253;-79
2023/05/30 04:51:26;;;;;;;5.73;3.30;;;;;;;13.35;73.52;102535.28;6044993;29;20229;-76
2023/05/30 04:54:47;;;;;;;9.83;4.17;;;;;;;14.06;72.95;102522.56;6031055;29;20241;-75
2023/05/30 04:58:07;;;;;;;9.80;4.33;;;;;;;14.14;71.95;102530.97;6039966;29;20241;-75
2023/05/30 05:01:28;;;;;;;9.87;4.00;;;;;;;14.10;71.56;102520.50;6051377;29;20588;-75
2023/05/30 05:04:49;;;;;;;6.60;3.53;;;;;;;14.07;71.05;102527.00;6057074;29;20324;-75
2023/05/30 05:08:11;;;;;;;6.60;3.43;;;;;;;14.55;71.20;102532.34;6063304;29;20245;-76
2023/05/30 05:11:32;;;;;;;6.90;4.00;;;;;;;14.40;70.32;102532.56;6061702;29;20319;-77
2023/05/30 05:14:54;;;;;;;5.07;2.83;;;;;;;14.70;69.67;102526.56;6061827;29;20272;-76
2023/05/30 05:18:15;;;;;;;9.77;4.10;;;;;;;14.66;69.14;102538.66;6053062;29;20233;-76
2023/05/30 05:21:36;;;;;;;16.77;9.30;;;;;;;14.13;69.96;102544.66;6052064;29;20245;-76
2023/05/30 05:24:59;;;;;;;7.33;4.70;;;;;;;14.54;69.86;102547.75;6056002;29;20320;-76
2023/05/30 05:28:20;;;;;;;9.33;4.70;;;;;;;14.52;69.75;102557.03;6052128;29;20237;-75
2023/05/30 05:31:42;;;;;;;9.30;5.13;;;;;;;14.57;69.77;102552.94;6054986;29;20240;-76
2023/05/30 05:35:03;;;;;;;7.83;3.73;;;;;;;14.38;69.40;102553.53;6056217;29;20237;-76
2023/05/30 05:38:24;;;;;;;7.30;3.97;;;;;;;14.73;69.98;102552.56;6050472;29;20619;-74
2023/05/30 05:41:46;;;;;;;4.23;3.80;;;;;;;14.75;69.05;102546.03;6053580;29;20869;-77
2023/05/30 05:45:07;;;;;;;8.13;4.50;;;;;;;14.96;69.00;102548.88;6054883;29;20328;-76
2023/05/30 05:48:28;;;;;;;8.60;3.83;;;;;;;14.88;68.15;102554.06;6059727;29;20249;-76
2023/05/30 05:51:49;;;;;;;5.77;3.67;;;;;;;14.92;68.45;102571.84;6058713;29;20245;-75
2023/05/30 05:55:10;;;;;;;8.83;4.60;;;;;;;14.60;68.48;102569.00;6061343;29;21888;-76
2023/05/30 05:58:32;;;;;;;8.17;4.23;;;;;;;14.83;68.61;102559.88;6064180;29;20720;-76
2023/05/30 06:01:53;;;;;;;11.77;3.83;;;;;;;14.82;68.51;102558.16;6058128;29;20335;-75
2023/05/30 06:05:14;;;;;;;9.10;4.27;;;;;;;14.96;68.42;102562.47;6053973;29;20244;-76
2023/05/30 06:08:36;;;;;;;5.37;3.83;;;;;;;15.05;68.05;102559.91;6054615;29;20233;-76
2023/05/30 06:11:57;;;;;;;5.13;3.30;;;;;;;15.01;68.00;102560.25;6059324;29;20241;-79
2023/05/30 06:15:20;;;;;;;6.10;3.67;;;;;;;14.47;68.92;102567.34;6056564;29;20238;-82
2023/05/30 06:18:42;;;;;;;5.40;3.60;;;;;;;14.65;69.25;102563.19;6055610;29;20237;-80
2023/05/30 06:22:02;;;;;;;5.30;3.93;;;;;;;14.67;69.10;102564.81;6057813;29;20230;-80
2023/05/30 06:25:25;;;;;;;12.43;4.13;;;;;;;14.38;69.83;102564.38;6062707;29;20238;-78
2023/05/30 06:28:48;;;;;;;12.13;8.03;;;;;;;14.36;69.90;102571.78;6063096;29;22229;-80
2023/05/30 06:32:11;;;;;;;9.97;5.90;;;;;;;14.45;69.94;102570.19;6059472;29;20607;-79
2023/05/30 06:35:32;;;;;;;9.97;5.33;;;;;;;14.45;69.83;102564.78;6058501;29;20265;-80
2023/05/30 06:38:53;;;;;;;8.40;4.97;;;;;;;14.57;69.98;102566.50;6061920;29;20256;-79
2023/05/30 06:42:14;;;;;;;9.90;5.50;;;;;;;14.51;70.06;102580.56;6044079;29;20237;-78
2023/05/30 06:45:39;;;;;;;5.83;3.93;;;;;;;14.61;70.10;102587.00;6058699;29;20306;-79
2023/05/30 06:49:01;;;;;;;6.23;4.20;;;;;;;14.70;69.88;102588.13;6060590;29;20233;-80
2023/05/30 06:52:22;;;;;;;8.40;3.97;;;;;;;14.63;69.69;102590.47;6047725;29;20245;-79
2023/05/30 06:55:42;;;;;;;3.37;2.97;;;;;;;14.79;69.58;102584.69;6060603;29;20297;-79
2023/05/30 06:59:03;;;;;;;3.83;3.40;;;;;;;14.81;68.76;102580.84;6060390;29;20237;-79
2023/05/30 07:02:24;;;;;;;5.27;3.20;;;;;;;15.04;68.62;102579.03;6059832;29;20233;-80
2023/05/30 07:05:46;;;;;;;4.93;2.67;;;;;;;14.88;68.60;102592.97;6060073;29;20225;-79
2023/05/30 07:09:07;;;;;;;8.50;3.77;;;;;;;14.89;68.95;102591.13;6056526;29;20230;-79
2023/05/30 07:12:28;;;;;;;4.90;4.17;;;;;;;14.78;68.41;102574.81;6059376;29;20245;-78
2023/05/30 07:15:49;;;;;;;7.83;3.97;;;;;;;14.70;68.61;102590.84;6062223;29;20241;-79
2023/05/30 07:19:10;;;;;;;13.90;7.70;;;;;;;14.92;68.94;102591.75;6062959;29;20229;-81
2023/05/30 07:22:32;;;;;;;4.37;3.43;;;;;;;15.01;68.70;102593.72;6061042;29;20229;-81
2023/05/30 07:25:53;;;;;;;7.57;3.77;;;;;;;15.01;68.70;102582.00;6041553;29;20238;-80
2023/05/30 07:29:13;;;;;;;5.87;3.40;;;;;;;15.20;67.93;102588.56;6066239;29;20655;-79
2023/05/30 07:32:34;;;;;;;5.23;4.53;;;;;;;15.37;68.08;102583.59;6061907;29;20238;-78
2023/05/30 07:35:55;;;;;;;4.37;3.07;;;;;;;15.56;67.27;102595.56;6037360;29;20233;-77
2023/05/30 07:39:19;;;;;;;8.07;3.73;;;;;;;15.42;67.46;102586.78;6060081;29;20229;-78
2023/05/30 07:42:40;;;;;;;6.67;3.00;;;;;;;15.42;67.19;102589.50;6060709;29;20225;-79
2023/05/30 07:46:00;;;;;;;4.13;3.53;;;;;;;15.18;67.59;102598.69;6058872;29;20232;-82
2023/05/30 07:49:21;;;;;;;5.63;3.70;;;;;;;15.42;67.66;102603.97;6063382;29;20598;-80
2023/05/30 07:52:42;;;;;;;13.07;4.23;;;;;;;15.58;67.34;102612.59;6065129;29;20248;-80
2023/05/30 07:56:04;;;;;;;11.67;3.90;;;;;;;15.20;67.67;102607.56;6062779;29;20237;-79
2023/05/30 07:59:26;;;;;;;8.17;3.57;;;;;;;15.06;68.07;102610.50;6052030;29;20237;-80
2023/05/30 08:02:46;;;;;;;4.67;3.97;;;;;;;15.12;68.23;102614.59;6063294;29;20237;-79
2023/05/30 08:06:08;;;;;;;11.33;3.17;;;;;;;15.23;68.00;102609.16;6061439;29;20707;-79
2023/05/30 08:09:29;;;;;;;8.20;3.40;;;;;;;15.54;67.51;102611.13;6049625;29;20230;-80
2023/05/30 08:12:52;;;;;;;13.00;4.00;;;;;;;15.64;67.47;102603.09;6060873;29;20636;-78
2023/05/30 08:16:12;;;;;;;2.77;2.40;;;;;;;15.72;67.18;102608.78;6057662;29;20683;-80
2023/05/30 08:19:33;;;;;;;5.40;3.87;;;;;;;15.69;66.94;102603.56;6056622;29;20253;-80
2023/05/30 08:22:55;;;;;;;6.87;3.03;;;;;;;15.86;66.83;102603.91;6062695;29;20592;-81
2023/05/30 08:26:16;;;;;;;8.07;4.17;;;;;;;15.85;67.02;102596.72;6060271;29;20993;-80
2023/05/30 08:29:39;;;;;;;7.70;2.90;;;;;;;15.92;66.42;102594.38;6059876;29;20597;-79
2023/05/30 08:33:00;;;;;;;5.50;3.80;;;;;;;15.99;66.29;102598.31;6058109;29;20241;-80
2023/05/30 08:36:22;;;;;;;5.57;4.07;;;;;;;15.79;66.41;102599.97;6060002;29;20225;-79
2023/05/30 08:39:42;;;;;;;5.83;3.77;;;;;;;15.93;66.54;102609.72;6063452;29;20238;-78
2023/05/30 08:43:03;;;;;;;6.43;3.53;;;;;;;15.50;66.60;102600.66;6065693;29;20589;-81
2023/05/30 08:46:26;;;;;;;10.00;8.93;;;;;;;15.82;66.82;102609.72;6063581;29;20503;-79
2023/05/30 08:49:48;;;;;;;5.97;5.37;;;;;;;15.61;66.83;102617.81;6063400;29;20605;-78
2023/05/30 08:53:12;;;;;;;6.27;4.47;;;;;;;15.84;66.87;102618.63;6066947;29;20774;-79
2023/05/30 08:56:40;;;;;;;9.57;4.40;;;;;;;15.47;66.78;102620.81;6061903;29;20257;-78
2023/05/30 09:00:05;;;;;;;3.27;2.97;;;;;;;15.70;66.79;102622.50;6064447;29;20690;-79
2023/05/30 09:03:30;;;;;;;12.03;4.60;;;;;;;15.76;66.29;102621.13;6062959;29;20230;-79
2023/05/30 09:06:54;;;;;;;4.07;3.47;;;;;;;15.66;66.19;102617.44;6067267;29;20226;-77
2023/05/30 09:10:16;;;;;;;5.23;2.87;;;;;;;15.45;66.42;102622.78;6065859;29;20249;-79
2023/05/30 09:13:37;;;;;;;4.10;3.07;;;;;;;15.67;66.86;102622.75;6064772;29;20863;-81
2023/05/30 09:16:58;;;;;;;4.37;3.33;;;;;;;15.80;66.57;102620.75;6064587;29;20245;-82
2023/05/30 09:20:23;;;;;;;3.87;2.63;;;;;;;16.14;65.95;102623.34;6048524;29;20233;-81
2023/05/30 09:23:45;;;;;;;10.20;4.10;;;;;;;16.20;65.52;102614.69;6066555;29;20229;-80
2023/05/30 09:27:06;;;;;;;8.00;3.63;;;;;;;15.79;65.57;102627.16;6052362;29;20241;-81
2023/05/30 09:30:28;;;;;;;8.80;4.23;;;;;;;15.96;65.99;102629.34;6068095;29;20229;-80
2023/05/30 09:33:51;;;;;;;8.87;5.43;;;;;;;16.14;65.79;102632.41;6063698;29;20744;-79
2023/05/30 09:37:13;;;;;;;7.33;4.07;;;;;;;16.11;66.00;102638.09;6067189;29;20237;-79
2023/05/30 09:40:34;;;;;;;8.17;3.70;;;;;;;16.05;65.63;102635.00;6066218;29;20233;-78
2023/05/30 09:43:56;;;;;;;4.57;3.20;;;;;;;16.37;65.40;102639.47;6065297;29;20325;-80
2023/05/30 09:47:17;;;;;;;3.67;2.90;;;;;;;16.54;65.25;102635.34;6065331;29;20228;-79
2023/05/30 09:50:38;;;;;;;4.30;2.70;;;;;;;15.80;66.09;102645.22;6067565;29;20787;-81
2023/05/30 09:54:03;;;;;;;11.73;6.60;;;;;;;16.13;65.84;102643.38;6061045;29;20245;-79
2023/05/30 09:57:25;;;;;;;7.77;3.33;;;;;;;16.42;65.76;102644.50;6068011;29;20233;-79
2023/05/30 10:00:50;;;;;;;7.37;3.77;;;;;;;16.35;65.93;102648.75;6062625;29;20352;-79
2023/05/30 10:04:16;;;;;;;9.80;5.73;;;;;;;16.39;66.14;102644.78;6058293;29;20237;-80
2023/05/30 10:07:37;;;;;;;10.17;5.27;;;;;;;16.60;65.42;102656.59;6064652;29;20257;-79
2023/05/30 10:10:59;;;;;;;7.17;3.60;;;;;;;16.52;64.80;102659.97;6060429;29;20261;-77
2023/05/30 10:14:20;;;;;;;6.20;4.70;;;;;;;16.43;65.41;102660.72;6066250;29;20237;-81
2023/05/30 10:17:46;;;;;;;5.50;3.30;;;;;;;16.37;65.05;102663.09;6060142;29;20230;-80
2023/05/30 10:21:10;;;;;;;7.63;4.27;;;;;;;16.63;64.80;102659.03;6061217;29;20341;-78
2023/05/30 10:24:31;;;;;;;3.03;2.77;;;;;;;16.51;64.61;102660.09;6064440;29;20213;-79
2023/05/30 10:27:54;;;;;;;4.07;2.70;;;;;;;16.73;63.98;102663.56;6058457;29;20253;-79
2023/05/30 10:31:15;;;;;;;7.10;3.63;;;;;;;17.04;63.63;102664.53;6063399;29;20500;-79
2023/05/30 10:34:42;;;;;;;8.53;3.77;;;;;;;17.35;63.00;102660.81;6063072;29;20256;-80
2023/05/30 10:38:06;;;;;;;4.07;3.67;;;;;;;17.41;62.44;102651.22;6061620;29;20237;-80
2023/05/30 10:41:34;;;;;;;4.00;3.43;;;;;;;17.50;62.25;102659.44;6061051;29;20233;-78
2023/05/30 10:45:07;;;;;;;12.07;3.07;;;;;;;17.62;61.98;102654.78;6062666;29;20320;-79
2023/05/30 10:48:38;;;;;;;3.13;2.77;;;;;;;17.69;61.60;102657.81;6060999;29;20312;-79
2023/05/30 10:52:01;;;;;;;5.70;3.23;;;;;;;17.62;61.63;102657.50;6059411;29;20233;-79
2023/05/30 10:55:23;;;;;;;7.47;5.23;;;;;;;17.67;61.53;102652.47;6059234;29;20308;-78
2023/05/30 10:58:46;;;;;;;11.43;8.70;;;;;;;17.75;61.56;102651.81;6063256;29;20240;-80
2023/05/30 11:02:08;;;;;;;14.43;4.27;;;;;;;17.58;61.64;102648.72;6057536;29;20237;-78
2023/05/30 11:05:33;;;;;;;4.30;3.20;;;;;;;17.10;62.37;102646.75;6058276;29;20343;-79
2023/05/30 11:09:04;;;;;;;3.40;3.03;;;;;;;17.45;62.02;102645.34;6059021;29;20229;-78
2023/05/30 11:12:25;;;;;;;4.87;4.20;;;;;;;17.80;61.61;102638.59;6059678;29;20244;-78
2023/05/30 11:15:46;;;;;;;5.03;3.27;;;;;;;17.67;61.67;102629.81;6058920;29;20706;-80
2023/05/30 11:19:12;;;;;;;7.13;3.70;;;;;;;17.83;61.28;102628.28;6055990;29;20231;-79
2023/05/30 11:22:33;;;;;;;7.67;4.23;;;;;;;17.91;61.43;102624.84;6062205;29;20236;-79
2023/05/30 11:25:56;;;;;;;6.40;4.50;;;;;;;18.05;60.75;102628.00;6066630;29;20233;-79
2023/05/30 11:29:33;;;;;;;12.47;10.33;;;;;;;18.35;60.27;102633.38;6063678;29;21815;-78
2023/05/30 11:32:56;;;;;;;5.93;4.53;;;;;;;18.26;60.03;102636.06;6063915;29;20232;-79
2023/05/30 11:36:18;;;;;;;6.17;3.67;;;;;;;18.49;59.83;102628.50;6051287;29;21175;-79
2023/05/30 11:39:40;;;;;;;7.23;3.80;;;;;;;18.37;59.77;102625.03;6061480;29;20681;-79
2023/05/30 11:43:01;;;;;;;3.50;2.67;;;;;;;18.54;59.58;102626.19;6061224;29;20245;-78
2023/05/30 11:46:22;;;;;;;4.30;3.42;;;;;;;18.53;59.46;102630.78;6064575;29;20237;-78
2023/05/30 11:49:47;;;;;;;5.65;3.88;;;;;;;18.66;59.71;102625.91;6063825;29;20557;-78
2023/05/30 11:53:13;;;;;;;9.95;3.55;;;;;;;19.10;58.79;102622.50;6070888;29;20244;-79
2023/05/30 11:56:34;;;;;;;5.00;3.38;;;;;;;18.47;58.59;102633.22;6065140;29;20619;-79
2023/05/30 11:59:55;;;;;;;3.97;3.57;;;;;;;18.41;59.70;102639.25;6064228;29;20252;-79
2023/05/30 12:03:17;;;;;;;5.45;2.92;;;;;;;18.71;59.03;102641.84;6061616;29;20247;-79
2023/05/30 12:06:38;;;;;;;4.90;3.65;;;;;;;18.97;58.69;102634.75;6057048;29;20225;-77
2023/05/30 12:10:00;;;;;;;4.55;3.20;;;;;;;18.53;58.90;102632.66;6044695;29;20233;-79
2023/05/30 12:13:21;;;;;;;7.45;6.40;;;;;;;18.13;59.90;102630.91;6057904;29;20257;-79
2023/05/30 12:16:42;;;;;;;5.75;4.57;;;;;;;18.40;59.87;102624.72;6062108;29;20237;-78
2023/05/30 12:20:09;;;;;;;7.25;4.28;;;;;;;18.76;58.91;102631.34;6061423;29;20504;-78
2023/05/30 12:23:31;;;;;;;8.13;4.32;;;;;;;18.60;59.23;102625.63;6066631;29;20248;-78
2023/05/30 12:26:56;;;;;;;6.68;4.15;;;;;;;18.87;59.12;102629.31;6063182;29;20519;-77
2023/05/30 12:30:19;;;;;;;4.63;4.18;;;;;;;19.03;58.78;102629.56;6062283;29;20545;-78
2023/05/30 12:33:40;;;;;;;4.25;3.80;;;;;;;19.30;57.74;102622.41;6063512;29;20234;-78
2023/05/30 12:37:00;;;;;;;4.80;3.58;;;;;;;19.68;56.88;102628.59;6055331;29;20254;-78
2023/05/30 12:40:26;;;;;;;7.05;4.43;;;;;;;20.20;55.79;102618.75;6076226;29;20237;-78
2023/05/30 12:43:51;;;;;;;5.20;3.47;;;;;;;19.34;55.99;102618.41;6070876;29;20233;-79
2023/05/30 12:47:12;;;;;;;9.15;3.22;;;;;;;19.68;56.81;102608.56;6063760;29;20233;-78
2023/05/30 12:50:33;;;;;;;4.45;3.00;;;;;;;20.03;55.96;102611.38;6067040;29;20676;-78
2023/05/30 12:53:55;;;;;;;5.20;3.08;;;;;;;20.12;56.18;102617.78;6058076;29;20253;-78
2023/05/30 12:57:18;;;;;;;3.65;2.92;;;;;;;19.75;56.10;102612.44;6070650;29;20225;-78
2023/05/30 13:00:40;;;;;;;5.80;2.45;;;;;;;19.43;56.06;102614.75;6066239;29;20225;-77
2023/05/30 13:04:02;;;;;;;3.70;3.28;;;;;;;19.49;56.07;102615.00;6067616;29;20576;-79
2023/05/30 13:07:23;;;;;;;5.32;3.22;;;;;;;20.05;54.47;102606.59;6066091;29;20241;-79
2023/05/30 13:10:44;;;;;;;3.13;2.60;;;;;;;20.70;53.56;102611.69;6065134;29;20249;-79
2023/05/30 13:14:05;;;;;;;5.95;3.83;;;;;;;20.71;53.37;102613.38;6066960;29;20256;-79
2023/05/30 13:17:27;;;;;;;8.98;3.05;;;;;;;21.75;52.58;102617.78;6061543;29;20225;-79
2023/05/30 13:20:48;;;;;;;6.53;3.33;;;;;;;21.49;52.10;102619.72;6064618;29;20276;-79
2023/05/30 13:24:09;;;;;;;6.72;5.65;;;;;;;21.61;52.13;102618.41;6068872;29;20245;-77
2023/05/30 13:27:29;;;;;;;9.23;7.75;;;;;;;21.10;52.35;102623.97;6063839;29;20324;-78
2023/05/30 13:30:50;;;;;;;3.25;2.95;;;;;;;20.60;53.57;102626.50;6070404;29;20225;-78
2023/05/30 13:34:12;;;;;;;4.80;4.10;;;;;;;20.23;55.25;102620.34;6067567;29;20245;-79
2023/05/30 13:37:33;;;;;;;4.28;3.20;;;;;;;19.67;55.98;102612.34;6053785;29;20229;-79
2023/05/30 13:40:54;;;;;;;4.40;3.97;;;;;;;19.77;55.93;102618.63;6073065;29;20611;-81
2023/05/30 13:44:15;;;;;;;4.13;2.95;;;;;;;19.88;55.76;102621.13;6054171;29;20480;-79
2023/05/30 13:47:36;;;;;;;4.90;3.10;;;;;;;19.71;55.71;102617.31;6069234;29;20245;-78
2023/05/30 13:50:58;;;;;;;5.55;4.70;;;;;;;20.01;55.69;102624.34;6071052;29;20249;-80
2023/05/30 13:54:19;;;;;;;11.23;9.48;;;;;;;20.21;55.60;102622.38;6062712;29;20344;-79
2023/05/30 13:57:40;;;;;;;4.53;3.72;;;;;;;20.43;54.71;102610.94;6065630;29;20776;-80
2023/05/30 14:01:03;;;;;;;2.65;2.45;;;;;;;20.64;56.50;102617.81;6064744;29;20237;-81
2023/05/30 14:04:23;;;;;;;4.32;3.38;;;;;;;20.67;55.32;102630.34;6042659;29;20241;-76
2023/05/30 14:07:46;;;;;;;3.35;2.83;;;;;;;20.45;56.00;102619.84;6062918;29;20237;-75
2023/05/30 14:11:07;;;;;;;3.20;2.90;;;;;;;20.69;56.89;102615.44;6058858;29;20253;-76
2023/05/30 14:14:28;;;;;;;3.58;2.50;;;;;;;21.20;54.61;102624.72;6028762;29;20236;-76
2023/05/30 14:17:49;;;;;;;2.60;2.30;;;;;;;21.20;54.34;102635.69;6055185;29;20238;-77
2023/05/30 14:21:09;;;;;;;5.72;3.42;;;;;;;21.28;53.68;102628.38;6060304;29;20499;-78
2023/05/30 14:24:32;;;;;;;3.63;2.92;;;;;;;21.37;53.17;102630.16;6056798;29;20249;-77
2023/05/30 14:27:53;;;;;;;5.82;3.13;;;;;;;20.99;52.79;102627.81;6056420;29;20234;-76
2023/05/30 14:31:14;;;;;;;8.30;3.55;;;;;;;20.89;53.90;102632.56;6055027;29;20572;-76
2023/05/30 14:34:35;;;;;;;3.25;2.30;;;;;;;21.23;53.12;102619.78;6051032;29;20714;-77
2023/05/30 14:37:56;;;;;;;4.63;2.95;;;;;;;21.24;54.12;102621.50;6058569;29;20639;-76
2023/05/30 14:41:18;;;;;;;5.68;2.60;;;;;;;21.82;53.07;102623.50;6055045;29;20245;-76
2023/05/30 14:44:39;;;;;;;4.78;3.05;;;;;;;21.39;52.68;102621.75;6065733;29;20237;-77
2023/05/30 14:48:00;;;;;;;2.95;2.65;;;;;;;22.08;53.02;102619.63;6066686;29;20521;-76
2023/05/30 14:51:21;;;;;;;6.03;3.88;;;;;;;22.38;52.40;102617.25;6057259;29;20639;-74
2023/05/30 14:54:42;;;;;;;4.45;2.88;;;;;;;23.05;50.51;102605.91;6061739;29;20693;-75
2023/05/30 14:58:06;;;;;;;4.93;3.28;;;;;;;22.84;50.51;102606.44;6048500;29;20237;-75
2023/05/30 15:01:27;;;;;;;3.22;2.40;;;;;;;22.76;50.36;102600.13;6048380;29;20252;-75
2023/05/30 15:04:47;;;;;;;3.00;2.25;;;;;;;23.09;50.33;102589.91;6059683;29;20256;-75
2023/05/30 15:08:08;;;;;;;4.65;3.08;;;;;;;23.48;49.17;102597.19;6047686;29;20241;-75
2023/05/30 15:11:29;;;;;;;3.00;2.70;;;;;;;23.33;48.21;102585.19;6053192;29;20262;-74
2023/05/30 15:14:52;;;;;;;2.53;1.98;;;;;;;23.64;48.21;102587.97;6059292;29;20237;-76
2023/05/30 15:18:13;;;;;;;3.75;2.67;;;;;;;23.45;47.95;102580.16;6056667;29;20264;-76
2023/05/30 15:21:34;;;;;;;4.40;2.33;;;;;;;23.17;48.98;102582.47;6051413;29;20635;-75
2023/05/30 15:24:55;;;;;;;3.03;2.03;;;;;;;23.30;48.80;102582.75;6066925;29;20316;-75
2023/05/30 15:28:16;;;;;;;6.78;2.33;;;;;;;23.64;48.60;102583.34;6059587;29;20252;-75
2023/05/30 15:31:38;;;;;;;4.20;3.15;;;;;;;23.89;47.77;102581.31;6057607;29;20233;-75
2023/05/30 15:34:58;;;;;;;8.73;7.28;;;;;;;23.70;46.92;102577.09;6060952;29;20241;-77
2023/05/30 15:38:19;;;;;;;6.97;3.35;;;;;;;22.78;48.27;102592.56;6048463;29;20599;-76